Time;durP1;ratioP1;P1;durP2;ratioP2;P2;SDS_P1;SDS_P2;PMS_P1;PMS_P2;Temp;Humidity;BMP_temperature;BMP_pressure;BME280_temperature;BME280_humidity;BME280_pressure;Samples;Min_cycle;Max_cycle;Signal;HPM_P1;HPM_P2
2021/11/22 00:00:14;;;;;;;49.75;28.85;;;10.40;99.90;;;;;;5031390;28;20041;-71
2021/11/22 00:03:19;;;;;;;54.55;29.90;;;10.40;99.90;;;;;;5031163;28;20041;-70
2021/11/22 00:06:23;;;;;;;54.65;29.95;;;10.40;99.90;;;;;;5030919;28;20041;-71
2021/11/22 00:09:27;;;;;;;54.67;31.67;;;10.40;99.90;;;;;;5031242;28;20053;-70
2021/11/22 00:12:33;;;;;;;48.50;29.08;;;10.50;99.90;;;;;;5031148;28;20384;-70
2021/11/22 00:15:37;;;;;;;51.10;30.67;;;10.50;99.90;;;;;;5031034;28;20501;-71
2021/11/22 00:18:44;;;;;;;56.28;30.63;;;10.50;99.90;;;;;;5031203;28;20044;-70
2021/11/22 00:21:48;;;;;;;54.17;30.95;;;10.60;99.90;;;;;;5031480;28;20065;-70
2021/11/22 00:24:52;;;;;;;49.80;28.25;;;10.60;99.90;;;;;;5030841;28;20048;-71
2021/11/22 00:27:56;;;;;;;53.30;30.15;;;10.70;99.90;;;;;;5031231;28;20056;-71
2021/11/22 00:31:20;;;;;;;56.25;32.97;;;10.60;99.90;;;;;;5031238;28;20048;-70
2021/11/22 00:34:30;;;;;;;47.75;28.65;;;10.60;99.90;;;;;;5029592;28;20048;-71
2021/11/22 00:38:04;;;;;;;60.17;33.72;;;10.60;99.90;;;;;;5030087;28;20045;-70
2021/11/22 00:41:08;;;;;;;51.03;30.70;;;10.60;99.90;;;;;;5030972;28;20135;-71
2021/11/22 00:44:13;;;;;;;53.00;30.80;;;10.60;99.90;;;;;;5031332;28;20400;-70
2021/11/22 00:47:18;;;;;;;51.22;31.27;;;10.50;99.90;;;;;;5029999;28;20045;-70
2021/11/22 00:50:25;;;;;;;56.17;31.27;;;10.50;99.90;;;;;;5030547;28;20060;-70
2021/11/22 00:53:29;;;;;;;58.72;33.05;;;10.60;99.90;;;;;;5011165;28;20056;-70
2021/11/22 00:56:36;;;;;;;56.10;31.92;;;10.50;99.90;;;;;;5026303;28;20056;-70
2021/11/22 00:59:40;;;;;;;52.80;30.80;;;10.50;99.90;;;;;;5029494;28;20040;-70
2021/11/22 01:02:44;;;;;;;58.50;32.03;;;10.50;99.90;;;;;;5030764;28;20052;-71
2021/11/22 01:05:49;;;;;;;59.97;33.08;;;10.50;99.90;;;;;;5029859;28;20588;-70
2021/11/22 01:08:53;;;;;;;56.60;32.30;;;10.50;99.90;;;;;;5029284;28;20049;-71
2021/11/22 01:11:59;;;;;;;60.20;34.88;;;10.50;99.90;;;;;;5030321;28;20037;-71
2021/11/22 01:15:07;;;;;;;53.20;31.63;;;10.50;99.90;;;;;;5027272;28;20662;-71
2021/11/22 01:18:11;;;;;;;56.65;32.25;;;10.50;99.90;;;;;;5029264;28;20040;-71
2021/11/22 01:21:15;;;;;;;58.50;33.38;;;10.40;99.90;;;;;;5029596;28;20048;-71
2021/11/22 01:24:19;;;;;;;60.03;34.85;;;10.50;99.90;;;;;;5029125;28;20068;-71
2021/11/22 01:27:23;;;;;;;60.00;33.83;;;10.40;99.90;;;;;;5028957;28;20044;-71
2021/11/22 01:30:28;;;;;;;63.97;35.88;;;10.40;99.90;;;;;;5030174;28;20052;-71
2021/11/22 01:33:32;;;;;;;59.50;35.42;;;10.40;99.90;;;;;;5029855;28;20498;-71
2021/11/22 01:36:36;;;;;;;64.88;36.70;;;10.40;99.90;;;;;;5028905;28;20048;-71
2021/11/22 01:39:40;;;;;;;68.90;36.25;;;10.30;99.90;;;;;;5029343;28;20060;-71
2021/11/22 01:42:45;;;;;;;66.50;37.00;;;10.20;99.90;;;;;;5010044;28;20053;-71
2021/11/22 01:45:50;;;;;;;68.97;37.80;;;10.20;99.90;;;;;;5025047;28;20068;-71
2021/11/22 01:49:00;;;;;;;61.28;35.78;;;10.10;99.90;;;;;;5028907;28;20056;-71
2021/11/22 01:52:04;;;;;;;69.47;38.47;;;10.10;99.90;;;;;;5030074;28;20495;-72
2021/11/22 01:55:10;;;;;;;63.88;36.05;;;10.20;99.90;;;;;;5029295;28;20048;-71
2021/11/22 01:58:14;;;;;;;61.67;37.47;;;10.20;99.90;;;;;;5028769;28;20041;-71
2021/11/22 02:01:19;;;;;;;66.00;36.38;;;10.20;99.90;;;;;;5033852;28;20056;-71
2021/11/22 02:04:24;;;;;;;67.85;36.60;;;10.20;99.90;;;;;;5030787;28;20048;-71
2021/11/22 02:07:28;;;;;;;73.20;36.00;;;10.30;99.90;;;;;;5033059;28;20049;-71
2021/11/22 02:10:32;;;;;;;56.80;32.97;;;10.30;99.90;;;;;;5033614;28;20048;-71
2021/11/22 02:13:36;;;;;;;55.55;32.40;;;10.30;99.90;;;;;;5032568;28;20052;-71
2021/11/22 02:16:40;;;;;;;63.08;34.05;;;10.40;99.90;;;;;;5032776;28;20068;-71
2021/11/22 02:19:56;;;;;;;59.72;31.52;;;10.40;99.90;;;;;;5032924;28;20068;-71
2021/11/22 02:23:03;;;;;;;54.97;30.58;;;10.40;99.90;;;;;;5013285;28;20056;-71
2021/11/22 02:26:07;;;;;;;54.40;32.72;;;10.50;99.90;;;;;;5028469;28;20491;-71
2021/11/22 02:29:11;;;;;;;55.70;31.77;;;10.50;99.90;;;;;;5032829;28;20060;-71
2021/11/22 02:32:15;;;;;;;54.35;29.23;;;10.50;99.90;;;;;;5013697;28;20037;-71
2021/11/22 02:35:20;;;;;;;48.03;28.58;;;10.60;99.90;;;;;;5029999;28;20048;-71
2021/11/22 02:38:44;;;;;;;48.13;29.65;;;10.70;99.90;;;;;;5031806;28;20068;-71
2021/11/22 02:41:49;;;;;;;47.67;27.38;;;10.70;99.90;;;;;;5033191;28;20073;-71
2021/11/22 02:44:53;;;;;;;51.10;29.33;;;10.80;99.90;;;;;;5032778;28;20048;-71
2021/11/22 02:47:57;;;;;;;45.60;27.75;;;10.80;99.90;;;;;;5032125;28;20037;-71
2021/11/22 02:51:04;;;;;;;45.40;24.98;;;10.80;99.90;;;;;;5033041;28;20048;-71
2021/11/22 02:54:09;;;;;;;41.22;25.30;;;10.80;99.90;;;;;;5032787;28;20048;-71
2021/11/22 02:57:13;;;;;;;45.65;25.08;;;10.90;99.90;;;;;;5031140;28;20040;-71
2021/11/22 03:00:31;;;;;;;42.03;24.00;;;10.90;99.90;;;;;;5032245;28;20061;-71
2021/11/22 03:03:36;;;;;;;39.53;23.30;;;10.90;99.90;;;;;;5012632;28;20045;-71
2021/11/22 03:06:39;;;;;;;40.45;24.20;;;10.90;99.90;;;;;;5029562;28;20040;-71
2021/11/22 03:09:43;;;;;;;40.65;23.83;;;11.00;99.90;;;;;;5031495;28;20052;-71
2021/11/22 03:12:48;;;;;;;40.38;23.13;;;11.00;99.90;;;;;;5032810;28;20400;-72
2021/11/22 03:15:52;;;;;;;37.47;21.75;;;11.00;99.90;;;;;;5031280;28;20032;-71
2021/11/22 03:18:56;;;;;;;47.75;24.20;;;11.10;99.90;;;;;;5031571;28;20511;-71
2021/11/22 03:22:00;;;;;;;41.53;23.50;;;11.10;99.90;;;;;;5032141;28;20064;-71
2021/11/22 03:25:07;;;;;;;36.35;21.73;;;11.10;99.90;;;;;;5029408;28;20270;-71
2021/11/22 03:28:12;;;;;;;40.88;23.42;;;11.20;99.90;;;;;;5031436;28;20049;-71
2021/11/22 03:31:17;;;;;;;43.30;22.42;;;11.20;99.90;;;;;;5032624;28;20048;-71
2021/11/22 03:34:21;;;;;;;45.00;21.75;;;11.20;99.90;;;;;;5031858;28;20044;-71
2021/11/22 03:37:25;;;;;;;33.00;21.55;;;11.20;99.90;;;;;;5031719;28;20049;-71
2021/11/22 03:40:29;;;;;;;37.47;21.90;;;11.30;99.90;;;;;;5032032;28;20503;-71
2021/11/22 03:43:37;;;;;;;37.55;22.92;;;11.30;99.90;;;;;;5012421;28;20492;-71
2021/11/22 03:46:50;;;;;;;33.33;21.17;;;11.30;99.90;;;;;;5026453;28;20044;-71
2021/11/22 03:49:54;;;;;;;38.40;23.00;;;11.30;99.90;;;;;;5031203;28;20052;-71
2021/11/22 03:52:58;;;;;;;34.78;21.88;;;11.30;99.90;;;;;;5012530;28;20053;-71
2021/11/22 03:56:02;;;;;;;38.42;22.00;;;11.30;99.90;;;;;;5029666;28;20064;-71
2021/11/22 03:59:08;;;;;;;39.22;23.65;;;11.20;99.90;;;;;;5030714;28;20044;-71
2021/11/22 04:02:13;;;;;;;36.80;20.27;;;11.20;99.90;;;;;;5032030;28;20052;-71
2021/11/22 04:05:17;;;;;;;37.63;21.88;;;11.20;99.90;;;;;;5031025;28;20036;-71
2021/11/22 04:08:22;;;;;;;44.17;23.50;;;11.20;99.90;;;;;;5030298;28;20037;-71
2021/11/22 04:11:27;;;;;;;30.13;19.38;;;11.20;99.90;;;;;;5031144;28;20048;-71
2021/11/22 04:14:30;;;;;;;44.10;23.75;;;11.20;99.90;;;;;;5029515;28;20040;-71
2021/11/22 04:17:34;;;;;;;40.20;24.63;;;11.20;99.90;;;;;;5030540;28;20060;-71
2021/11/22 04:20:39;;;;;;;38.03;23.13;;;11.20;99.90;;;;;;5031017;28;20052;-71
2021/11/22 04:23:43;;;;;;;41.30;23.83;;;11.20;99.90;;;;;;5011323;28;20053;-71
2021/11/22 04:26:47;;;;;;;38.33;22.80;;;11.20;99.90;;;;;;5023391;28;20121;-71
2021/11/22 04:29:51;;;;;;;38.28;24.38;;;11.20;99.90;;;;;;5030355;28;20044;-72
2021/11/22 04:32:55;;;;;;;40.55;23.70;;;11.20;99.90;;;;;;5011323;28;20052;-71
2021/11/22 04:36:00;;;;;;;38.90;23.85;;;11.20;99.90;;;;;;5025178;28;20107;-72
2021/11/22 04:39:04;;;;;;;34.58;22.55;;;11.20;99.90;;;;;;5030313;28;20499;-72
2021/11/22 04:42:08;;;;;;;38.13;22.20;;;11.20;99.90;;;;;;5011103;28;20041;-71
2021/11/22 04:45:13;;;;;;;42.00;23.25;;;11.20;99.90;;;;;;5027283;28;20396;-71
2021/11/22 04:48:17;;;;;;;37.88;22.40;;;11.20;99.90;;;;;;5029740;28;20033;-71
2021/11/22 04:51:22;;;;;;;36.78;22.77;;;11.20;99.90;;;;;;5030985;28;20053;-72
2021/11/22 04:54:26;;;;;;;40.20;23.15;;;11.20;99.90;;;;;;5029781;28;20068;-71
2021/11/22 04:57:31;;;;;;;44.67;25.50;;;11.10;99.90;;;;;;5029818;28;20044;-71
2021/11/22 05:00:36;;;;;;;40.78;23.10;;;11.10;99.90;;;;;;5030676;28;20499;-71
2021/11/22 05:03:40;;;;;;;37.83;23.63;;;11.10;99.90;;;;;;5030188;28;20384;-71
2021/11/22 05:06:44;;;;;;;36.67;22.73;;;11.20;99.90;;;;;;5029678;28;20040;-71
2021/11/22 05:09:48;;;;;;;39.78;24.23;;;11.10;99.90;;;;;;5030251;28;20064;-71
2021/11/22 05:12:54;;;;;;;38.92;24.77;;;11.10;99.90;;;;;;5030139;28;20056;-71
2021/11/22 05:15:58;;;;;;;40.08;23.85;;;11.00;99.90;;;;;;5029494;28;20048;-71
2021/11/22 05:19:02;;;;;;;46.05;26.58;;;11.00;99.90;;;;;;5029335;28;20064;-71
2021/11/22 05:22:06;;;;;;;42.13;24.27;;;11.10;99.90;;;;;;5010478;28;20392;-71
2021/11/22 05:25:10;;;;;;;40.83;23.23;;;11.10;99.90;;;;;;5023398;28;20036;-71
2021/11/22 05:28:15;;;;;;;41.83;24.80;;;11.10;99.90;;;;;;5029689;28;20053;-71
2021/11/22 05:31:18;;;;;;;42.95;24.73;;;11.10;99.90;;;;;;5007607;28;20041;-71
2021/11/22 05:34:23;;;;;;;39.53;23.25;;;11.10;99.90;;;;;;5025272;28;20494;-71
2021/11/22 05:37:30;;;;;;;40.40;24.70;;;11.00;99.90;;;;;;5029625;28;20052;-71
2021/11/22 05:40:34;;;;;;;41.55;24.73;;;11.00;99.90;;;;;;5030465;28;20056;-71
2021/11/22 05:43:40;;;;;;;41.05;24.52;;;11.00;99.90;;;;;;5029330;28;20063;-71
2021/11/22 05:46:44;;;;;;;47.50;24.15;;;11.00;99.90;;;;;;5029508;28;20052;-71
2021/11/22 05:49:48;;;;;;;40.55;23.60;;;11.00;99.90;;;;;;5030057;28;20052;-71
2021/11/22 05:52:54;;;;;;;49.95;25.02;;;10.90;99.90;;;;;;5026673;28;20499;-71
2021/11/22 05:55:58;;;;;;;41.33;23.98;;;10.80;99.90;;;;;;5029490;28;20052;-72
2021/11/22 05:59:02;;;;;;;39.47;23.95;;;10.80;99.90;;;;;;5029350;28;20514;-71
2021/11/22 06:02:06;;;;;;;38.05;23.10;;;10.80;99.90;;;;;;5029535;28;20047;-71
2021/11/22 06:05:10;;;;;;;39.97;22.83;;;10.80;99.90;;;;;;5029467;28;20068;-71
2021/11/22 06:08:16;;;;;;;37.50;22.00;;;10.80;99.90;;;;;;5030073;28;20048;-71
2021/11/22 06:11:21;;;;;;;42.90;23.63;;;10.80;99.90;;;;;;5010560;28;20064;-71
2021/11/22 06:14:25;;;;;;;40.28;24.17;;;10.80;99.90;;;;;;5022213;28;20471;-71
2021/11/22 06:17:29;;;;;;;42.65;24.15;;;10.70;99.90;;;;;;5029743;28;20044;-71
2021/11/22 06:20:33;;;;;;;41.55;25.08;;;10.70;99.90;;;;;;5030072;28;20061;-71
2021/11/22 06:23:37;;;;;;;43.90;24.45;;;10.60;99.90;;;;;;5029222;28;20044;-71
2021/11/22 06:26:42;;;;;;;47.28;26.67;;;10.60;99.90;;;;;;5029301;28;20044;-71
2021/11/22 06:29:46;;;;;;;45.75;27.17;;;10.50;99.90;;;;;;5010407;28;20148;-71
2021/11/22 06:32:53;;;;;;;47.47;26.48;;;10.50;99.90;;;;;;5027572;28;20487;-71
2021/11/22 06:35:58;;;;;;;48.90;26.45;;;10.50;99.90;;;;;;5029156;28;20053;-71
2021/11/22 06:39:03;;;;;;;50.63;28.60;;;10.50;99.90;;;;;;5029511;28;20048;-71
2021/11/22 06:42:07;;;;;;;62.90;39.45;;;10.50;99.90;;;;;;5026119;28;20048;-71
2021/11/22 06:45:11;;;;;;;57.85;36.88;;;10.50;99.90;;;;;;5029887;28;20044;-71
2021/11/22 06:48:17;;;;;;;52.17;32.03;;;10.60;99.90;;;;;;5033459;28;20045;-71
2021/11/22 06:51:21;;;;;;;49.65;28.75;;;10.60;99.90;;;;;;5032055;28;20069;-71
2021/11/22 06:54:25;;;;;;;42.88;26.48;;;10.70;99.90;;;;;;5032755;28;20052;-71
2021/11/22 06:57:29;;;;;;;39.38;24.73;;;10.90;99.90;;;;;;5033076;28;20053;-71
2021/11/22 07:00:33;;;;;;;42.95;24.52;;;11.00;99.90;;;;;;5013323;28;20049;-71
2021/11/22 07:03:37;;;;;;;36.42;23.20;;;11.20;99.90;;;;;;5026042;28;20396;-71
2021/11/22 07:06:43;;;;;;;37.42;24.02;;;11.30;99.90;;;;;;5031550;28;20271;-71
2021/11/22 07:09:47;;;;;;;37.85;23.48;;;11.40;99.90;;;;;;5030374;28;20040;-71
2021/11/22 07:12:54;;;;;;;39.90;23.13;;;11.50;99.90;;;;;;5030735;28;20040;-71
2021/11/22 07:15:58;;;;;;;29.67;19.80;;;11.60;99.90;;;;;;5031151;28;20077;-72
2021/11/22 07:19:02;;;;;;;33.58;22.00;;;11.60;99.90;;;;;;5030903;28;20056;-71
2021/11/22 07:22:08;;;;;;;31.40;19.83;;;11.70;99.90;;;;;;5031130;28;20795;-71
2021/11/22 07:25:12;;;;;;;24.98;16.52;;;11.80;99.90;;;;;;5023548;28;20495;-71
2021/11/22 07:28:16;;;;;;;42.78;27.17;;;11.80;99.90;;;;;;5024204;28;20044;-71
2021/11/22 07:31:20;;;;;;;38.08;24.83;;;11.90;99.90;;;;;;5031328;28;20064;-71
2021/11/22 07:34:24;;;;;;;32.05;21.35;;;12.00;99.90;;;;;;5029449;28;20033;-71
2021/11/22 07:37:29;;;;;;;36.70;22.77;;;12.10;99.90;;;;;;5027254;28;20052;-71
2021/11/22 07:40:33;;;;;;;30.80;20.70;;;12.20;99.90;;;;;;5029798;28;20044;-71
2021/11/22 07:43:38;;;;;;;32.58;20.17;;;12.20;99.90;;;;;;5031054;28;20491;-71
2021/11/22 07:46:42;;;;;;;45.40;25.35;;;12.40;99.90;;;;;;5028965;28;20048;-71
2021/11/22 07:49:46;;;;;;;72.60;35.53;;;12.50;99.90;;;;;;5029417;28;20032;-71
2021/11/22 07:52:51;;;;;;;46.72;23.95;;;12.60;99.90;;;;;;5030025;28;20044;-72
2021/11/22 07:55:55;;;;;;;31.33;19.48;;;12.80;99.90;;;;;;5030981;28;20056;-71
2021/11/22 07:58:59;;;;;;;40.53;22.40;;;13.00;99.90;;;;;;5030372;28;20052;-71
2021/11/22 08:02:03;;;;;;;46.15;24.35;;;13.30;99.90;;;;;;5029130;28;20236;-71
2021/11/22 08:05:10;;;;;;;46.47;23.83;;;13.50;99.90;;;;;;5031371;28;20044;-71
2021/11/22 08:08:16;;;;;;;32.45;20.52;;;13.80;99.90;;;;;;5029702;28;20040;-71
2021/11/22 08:14:29;;;;;;;33.13;20.95;;;13.80;99.90;;;;;;5027340;28;20064;-71
2021/11/22 08:17:34;;;;;;;31.83;18.45;;;13.90;99.90;;;;;;5026685;28;20049;-71
2021/11/22 08:20:38;;;;;;;31.92;19.55;;;13.90;99.90;;;;;;5030292;28;20487;-71
2021/11/22 08:23:43;;;;;;;22.80;14.57;;;14.00;99.90;;;;;;5029599;28;20052;-71
2021/11/22 08:26:48;;;;;;;23.08;14.40;;;14.20;99.90;;;;;;5039593;28;20036;-71
2021/11/22 08:29:53;;;;;;;22.45;15.07;;;14.50;99.90;;;;;;5028954;28;20048;-71
2021/11/22 08:32:58;;;;;;;23.73;16.42;;;14.60;99.90;;;;;;5027699;28;20032;-71
2021/11/22 08:36:02;;;;;;;27.70;17.85;;;14.80;99.90;;;;;;5029884;28;20048;-71
2021/11/22 08:39:06;;;;;;;26.48;18.63;;;14.70;99.90;;;;;;5028958;28;20040;-71
2021/11/22 08:42:10;;;;;;;26.85;18.63;;;13.80;99.90;;;;;;5024851;28;20488;-71
2021/11/22 08:45:16;;;;;;;31.58;19.48;;;13.30;99.90;;;;;;5027432;28;20051;-71
2021/11/22 08:48:21;;;;;;;28.00;19.33;;;13.10;99.90;;;;;;5029366;28;20044;-71
2021/11/22 08:51:25;;;;;;;32.03;19.65;;;13.20;99.90;;;;;;5025076;28;20052;-71
2021/11/22 08:54:30;;;;;;;28.88;19.95;;;13.10;99.90;;;;;;5027845;28;20123;-71
2021/11/22 08:57:34;;;;;;;28.48;17.92;;;13.20;99.90;;;;;;5030490;28;20056;-71
2021/11/22 09:00:40;;;;;;;33.40;21.35;;;13.20;99.90;;;;;;5027295;28;20040;-71
2021/11/22 09:03:44;;;;;;;33.00;21.98;;;13.00;99.90;;;;;;5027166;28;20400;-71
2021/11/22 09:06:48;;;;;;;35.33;20.90;;;12.40;99.90;;;;;;5027118;28;20522;-71
2021/11/22 09:09:52;;;;;;;34.47;20.88;;;12.40;99.90;;;;;;5028226;28;20052;-71
2021/11/22 09:12:57;;;;;;;50.85;28.27;;;12.50;99.90;;;;;;5026514;28;20392;-71
2021/11/22 09:16:01;;;;;;;78.13;41.03;;;12.60;99.90;;;;;;5025833;28;20052;-71
2021/11/22 09:19:05;;;;;;;77.75;38.78;;;12.50;99.90;;;;;;5027747;28;20510;-71
2021/11/22 09:22:12;;;;;;;54.95;32.65;;;12.50;99.90;;;;;;5028676;28;20510;-71
2021/11/22 09:25:15;;;;;;;48.47;28.70;;;12.60;99.90;;;;;;5026097;28;20045;-72
2021/11/22 09:28:21;;;;;;;45.20;24.88;;;12.70;99.90;;;;;;5027845;28;20044;-71
2021/11/22 09:31:25;;;;;;;38.72;22.75;;;12.90;99.90;;;;;;5027415;28;20498;-71
2021/11/22 09:34:29;;;;;;;30.67;18.52;;;13.30;99.90;;;;;;5027641;28;20117;-71
2021/11/22 09:37:34;;;;;;;28.10;17.55;;;14.00;99.90;;;;;;5039196;28;20124;-71
2021/11/22 09:40:39;;;;;;;29.27;19.30;;;14.70;99.90;;;;;;5026545;28;20044;-71
2021/11/22 09:43:45;;;;;;;21.20;13.73;;;15.00;99.90;;;;;;5026568;28;20543;-71
2021/11/22 09:46:52;;;;;;;25.90;14.77;;;15.50;99.90;;;;;;5023852;28;20041;-71
2021/11/22 09:49:56;;;;;;;23.15;15.10;;;16.00;99.90;;;;;;5028130;28;20123;-72
2021/11/22 09:53:02;;;;;;;21.98;13.68;;;16.10;99.90;;;;;;5027984;28;20527;-71
2021/11/22 09:56:06;;;;;;;23.90;15.88;;;16.10;99.90;;;;;;5029726;28;20037;-71
2021/11/22 09:59:10;;;;;;;25.00;15.00;;;15.80;99.90;;;;;;5027644;28;20037;-71
2021/11/22 10:02:15;;;;;;;30.42;17.75;;;15.50;99.90;;;;;;5027350;28;20503;-71
2021/11/22 10:05:24;;;;;;;28.30;15.85;;;15.20;99.90;;;;;;5023598;28;20396;-71
2021/11/22 10:08:40;;;;;;;20.73;14.02;;;15.00;99.90;;;;;;5028210;28;20040;-71
2021/11/22 10:12:02;;;;;;;21.25;13.45;;;14.80;99.90;;;;;;5024962;28;20389;-71
2021/11/22 10:15:06;;;;;;;22.80;13.68;;;14.60;99.90;;;;;;5029223;28;20391;-71
2021/11/22 10:18:23;;;;;;;34.30;20.40;;;14.50;99.90;;;;;;5025733;28;20040;-71
2021/11/22 10:21:38;;;;;;;32.40;21.30;;;14.50;99.90;;;;;;5029713;28;20048;-71
2021/11/22 10:24:43;;;;;;;32.45;19.73;;;14.50;99.90;;;;;;5030685;28;20048;-71
2021/11/22 10:27:49;;;;;;;26.40;18.13;;;14.50;99.90;;;;;;5030331;28;20060;-71
2021/11/22 10:31:00;;;;;;;27.23;17.90;;;14.70;99.90;;;;;;5032396;28;20056;-71
2021/11/22 10:34:04;;;;;;;31.35;17.75;;;14.80;99.90;;;;;;5030829;28;20387;-71
2021/11/22 10:37:09;;;;;;;23.02;15.70;;;14.80;99.90;;;;;;5031777;28;20056;-71
2021/11/22 10:40:17;;;;;;;28.23;18.83;;;14.90;99.90;;;;;;5030782;28;20049;-71
2021/11/22 10:43:34;;;;;;;28.35;17.05;;;14.90;99.90;;;;;;5029106;28;20045;-71
2021/11/22 10:46:43;;;;;;;29.10;18.10;;;15.00;99.90;;;;;;5030077;28;20068;-71
2021/11/22 10:49:53;;;;;;;26.88;17.33;;;15.10;99.90;;;;;;5028576;28;20041;-71
2021/11/22 10:53:01;;;;;;;26.05;17.95;;;15.10;99.90;;;;;;5031873;28;20121;-71
2021/11/22 10:56:12;;;;;;;28.25;18.08;;;15.30;99.90;;;;;;5030626;28;20411;-71
2021/11/22 10:59:20;;;;;;;26.70;17.30;;;15.40;99.90;;;;;;5028637;28;20041;-71
2021/11/22 11:02:45;;;;;;;28.20;18.60;;;15.60;99.90;;;;;;5031324;28;20037;-71
2021/11/22 11:05:57;;;;;;;24.83;17.67;;;15.80;99.90;;;;;;5028706;28;20400;-71
2021/11/22 11:09:01;;;;;;;27.13;17.60;;;16.00;99.90;;;;;;5030644;28;20097;-71
2021/11/22 11:12:12;;;;;;;26.17;17.60;;;16.20;99.90;;;;;;5033784;28;20492;-71
2021/11/22 11:15:18;;;;;;;25.15;16.45;;;16.70;99.90;;;;;;5031186;28;20056;-71
2021/11/22 11:18:23;;;;;;;22.00;14.50;;;18.60;99.90;;;;;;5027652;28;20392;-71
2021/11/22 11:21:35;;;;;;;19.70;14.57;;;20.90;99.90;;;;;;5029294;28;20056;-71
2021/11/22 11:24:40;;;;;;;21.52;13.38;;;21.30;99.90;;;;;;5031594;28;20052;-71
2021/11/22 11:27:46;;;;;;;23.63;14.43;;;20.90;99.90;;;;;;5027833;28;20032;-71
2021/11/22 11:30:50;;;;;;;18.58;12.98;;;20.50;99.90;;;;;;5033652;28;20093;-71
2021/11/22 11:33:55;;;;;;;22.40;14.48;;;20.00;99.90;;;;;;5031244;28;20365;-71
2021/11/22 11:37:30;;;;;;;18.40;13.07;;;20.10;99.90;;;;;;5030195;28;20060;-71
2021/11/22 11:41:19;;;;;;;17.02;12.98;;;20.60;99.90;;;;;;5027618;28;20065;-71
2021/11/22 11:44:40;;;;;;;14.60;10.90;;;22.10;99.90;;;;;;5030058;28;20049;-71
2021/11/22 11:47:52;;;;;;;18.35;10.63;;;24.70;99.90;;;;;;5029684;28;20037;-72
2021/11/22 11:51:11;;;;;;;11.55;8.82;;;27.70;99.90;;;;;;5030460;28;20044;-72
2021/11/22 11:54:17;;;;;;;11.18;8.35;;;30.70;96.60;;;;;;5039684;28;20499;-70
2021/11/22 11:57:23;;;;;;;10.02;7.95;;;31.60;93.30;;;;;;5023072;28;20040;-72
2021/11/22 12:00:28;;;;;;;13.50;8.68;;;30.60;92.90;;;;;;5024431;28;20064;-72
2021/11/22 12:04:00;;;;;;;13.88;9.15;;;29.30;92.50;;;;;;5026167;28;20043;-71
2021/11/22 12:07:09;;;;;;;14.85;8.75;;;28.60;92.80;;;;;;5032198;28;20056;-71
2021/11/22 12:10:21;;;;;;;12.30;8.05;;;26.40;94.90;;;;;;5028021;28;20041;-71
2021/11/22 12:13:47;;;;;;;13.02;8.77;;;24.80;96.20;;;;;;5029745;28;20052;-71
2021/11/22 12:16:51;;;;;;;10.98;8.13;;;23.20;98.70;;;;;;5029149;28;20040;-71
2021/11/22 12:19:55;;;;;;;13.60;9.00;;;21.90;99.90;;;;;;5027767;28;20044;-71
2021/11/22 12:23:04;;;;;;;12.95;8.45;;;21.00;99.90;;;;;;5029821;28;20052;-71
2021/11/22 12:26:11;;;;;;;11.07;7.88;;;20.00;99.90;;;;;;5025708;28;20476;-71
2021/11/22 12:29:29;;;;;;;12.20;8.60;;;19.50;99.90;;;;;;5025595;28;20044;-71
2021/11/22 12:32:35;;;;;;;9.32;7.65;;;19.60;99.90;;;;;;5040174;28;20041;-71
2021/11/22 12:35:39;;;;;;;12.55;8.60;;;20.80;99.90;;;;;;5026940;28;20507;-71
2021/11/22 12:38:43;;;;;;;15.02;8.40;;;20.80;99.90;;;;;;5038166;28;20036;-71
2021/11/22 12:41:53;;;;;;;14.57;8.82;;;19.90;99.90;;;;;;5029237;28;20057;-71
2021/11/22 12:45:00;;;;;;;10.10;8.15;;;19.80;99.90;;;;;;5028373;28;20041;-71
2021/11/22 12:48:34;;;;;;;11.95;8.50;;;19.70;99.90;;;;;;5030839;28;20041;-71
2021/11/22 12:51:45;;;;;;;12.48;7.68;;;19.00;99.90;;;;;;5028953;28;20041;-71
2021/11/22 12:55:19;;;;;;;12.18;8.00;;;18.70;99.90;;;;;;5028347;28;20044;-71
2021/11/22 12:58:29;;;;;;;14.55;9.00;;;18.10;99.90;;;;;;5029490;28;20087;-71
2021/11/22 13:01:33;;;;;;;16.65;10.25;;;16.90;99.90;;;;;;5023016;28;20412;-71
2021/11/22 13:04:43;;;;;;;13.38;9.75;;;16.20;99.90;;;;;;5027460;28;20044;-71
2021/11/22 13:07:48;;;;;;;17.15;10.02;;;16.30;99.90;;;;;;5031002;28;20060;-71
2021/11/22 13:10:53;;;;;;;20.30;9.75;;;16.30;99.90;;;;;;5028987;28;20396;-71
2021/11/22 13:14:08;;;;;;;14.80;9.07;;;16.20;99.90;;;;;;5029068;28;20064;-71
2021/11/22 13:17:13;;;;;;;14.60;9.52;;;16.00;99.90;;;;;;5022826;28;20044;-71
2021/11/22 13:20:17;;;;;;;15.35;9.68;;;15.80;99.90;;;;;;5025138;28;20048;-71
2021/11/22 13:23:28;;;;;;;17.63;10.75;;;15.50;99.90;;;;;;5022808;28;20060;-71
2021/11/22 13:26:35;;;;;;;18.20;11.68;;;15.20;99.90;;;;;;5025601;28;20052;-71
2021/11/22 13:29:40;;;;;;;21.02;11.70;;;14.90;99.90;;;;;;5028491;28;20155;-71
2021/11/22 13:32:57;;;;;;;17.83;10.43;;;14.70;99.90;;;;;;5026264;28;20044;-71
2021/11/22 13:36:01;;;;;;;16.60;10.85;;;14.60;99.90;;;;;;5029212;28;20052;-71
2021/11/22 13:39:31;;;;;;;22.80;10.55;;;14.80;99.90;;;;;;5029415;28;20167;-71
2021/11/22 13:42:36;;;;;;;17.55;11.40;;;14.90;99.90;;;;;;5027327;28;20048;-71
2021/11/22 13:45:40;;;;;;;17.55;11.15;;;15.00;99.90;;;;;;5025566;28;20048;-71
2021/11/22 13:48:59;;;;;;;19.13;11.90;;;15.00;99.90;;;;;;5030231;28;20044;-71
2021/11/22 13:52:04;;;;;;;17.08;11.43;;;15.10;99.90;;;;;;5037545;28;20037;-70
2021/11/22 13:55:08;;;;;;;16.90;11.40;;;15.10;99.90;;;;;;5020599;28;20056;-70
2021/11/22 13:58:15;;;;;;;19.10;12.57;;;15.10;99.90;;;;;;5028722;28;20380;-70
2021/11/22 14:01:20;;;;;;;15.40;10.80;;;15.10;99.90;;;;;;5026420;28;20040;-71
2021/11/22 14:04:26;;;;;;;17.58;12.35;;;15.10;99.90;;;;;;5026484;28;20036;-71
2021/11/22 14:07:41;;;;;;;26.55;14.70;;;14.90;99.90;;;;;;5027673;28;20052;-71
2021/11/22 14:10:45;;;;;;;35.78;18.13;;;14.90;99.90;;;;;;5028588;28;20490;-70
2021/11/22 14:13:51;;;;;;;44.88;24.90;;;14.90;99.90;;;;;;5025166;28;20052;-71
2021/11/22 14:17:01;;;;;;;46.25;22.38;;;14.80;99.90;;;;;;5026122;28;21148;-71
2021/11/22 14:20:12;;;;;;;38.20;21.50;;;14.80;99.90;;;;;;5028646;28;20048;-71
2021/11/22 14:23:32;;;;;;;51.70;27.58;;;14.80;99.90;;;;;;5027928;28;20037;-71
2021/11/22 14:26:40;;;;;;;67.13;32.70;;;14.80;99.90;;;;;;5023896;28;20040;-71
2021/11/22 14:29:57;;;;;;;64.75;29.38;;;14.80;99.90;;;;;;5028719;28;20052;-70
2021/11/22 14:33:14;;;;;;;73.07;33.75;;;14.80;99.90;;;;;;5028121;28;20511;-70
2021/11/22 14:36:18;;;;;;;65.95;32.13;;;14.70;99.90;;;;;;5023766;28;20048;-70
2021/11/22 14:39:32;;;;;;;58.97;29.13;;;14.70;99.90;;;;;;5029030;28;20057;-71
2021/11/22 14:42:36;;;;;;;41.60;23.25;;;14.70;99.90;;;;;;5027524;28;20044;-70
2021/11/22 14:45:42;;;;;;;45.17;25.90;;;14.50;99.90;;;;;;5026340;28;20037;-71
2021/11/22 14:48:48;;;;;;;30.50;18.90;;;14.50;99.90;;;;;;5022594;28;20036;-71
2021/11/22 14:51:52;;;;;;;39.58;21.88;;;14.40;99.90;;;;;;5027176;28;20044;-71
2021/11/22 14:54:56;;;;;;;34.65;22.20;;;14.40;99.90;;;;;;5027242;28;20052;-71
2021/11/22 14:58:01;;;;;;;40.90;24.55;;;14.40;99.90;;;;;;5028283;28;20346;-70
2021/11/22 15:01:46;;;;;;;38.22;21.17;;;14.40;99.90;;;;;;5033986;28;20040;-70
2021/11/22 15:04:52;;;;;;;37.75;21.73;;;14.40;99.90;;;;;;5028744;28;20076;-70
2021/11/22 15:07:56;;;;;;;32.85;19.85;;;14.40;99.90;;;;;;5030572;28;20048;-70
2021/11/22 15:11:02;;;;;;;44.67;23.98;;;14.40;99.90;;;;;;5032072;28;20499;-70
2021/11/22 15:14:18;;;;;;;37.85;19.60;;;14.40;99.90;;;;;;5032696;28;20040;-71
2021/11/22 15:17:27;;;;;;;38.65;20.10;;;14.40;99.90;;;;;;5032009;28;20048;-71
2021/11/22 15:20:32;;;;;;;33.22;18.05;;;14.30;99.90;;;;;;5030388;28;20048;-71
2021/11/22 15:23:38;;;;;;;29.38;17.70;;;14.20;99.90;;;;;;5028191;28;20040;-70
2021/11/22 15:26:43;;;;;;;36.53;21.60;;;14.20;99.90;;;;;;5032017;28;20048;-70
2021/11/22 15:29:55;;;;;;;39.08;24.15;;;14.10;99.90;;;;;;5028876;28;20044;-70
2021/11/22 15:32:59;;;;;;;40.65;27.02;;;14.10;99.90;;;;;;5030488;28;20068;-70
2021/11/22 15:36:04;;;;;;;38.15;24.48;;;14.00;99.90;;;;;;5031677;28;20392;-71
2021/11/22 15:39:08;;;;;;;41.35;23.50;;;13.90;99.90;;;;;;5028852;28;20044;-71
2021/11/22 15:42:15;;;;;;;33.40;19.42;;;13.80;99.90;;;;;;5030895;28;20502;-70
2021/11/22 15:45:20;;;;;;;35.92;19.85;;;13.80;99.90;;;;;;5034716;28;20060;-71
2021/11/22 15:48:24;;;;;;;39.65;23.38;;;13.80;99.90;;;;;;5030157;28;20060;-71
2021/11/22 15:51:28;;;;;;;55.05;36.47;;;13.80;99.90;;;;;;5026177;28;20040;-71